Time;durP1;ratioP1;P1;durP2;ratioP2;P2;SDS_P1;SDS_P2;PMS_P1;PMS_P2;Temp;Humidity;BMP_temperature;BMP_pressure;BME280_temperature;BME280_humidity;BME280_pressure;Samples;Min_cycle;Max_cycle;Signal;HPM_P1;HPM_P2
2022/03/11 00:01:42;;;;;;;6.30;4.68;;;;;;;-0.12;100.00;99206.19;10303618;28;20551;-63
2022/03/11 00:07:05;;;;;;;5.20;4.28;;;;;;;-0.21;100.00;99199.53;10321310;28;20050;-63
2022/03/11 00:12:10;;;;;;;5.05;4.25;;;;;;;-0.29;100.00;99202.53;10302916;28;20810;-63
2022/03/11 00:17:15;;;;;;;5.00;4.03;;;;;;;-0.34;100.00;99200.13;10328355;28;20071;-62
2022/03/11 00:22:18;;;;;;;4.93;3.90;;;;;;;-0.39;100.00;99196.81;10324725;28;20046;-62
2022/03/11 00:27:21;;;;;;;4.90;4.10;;;;;;;-0.49;100.00;99195.53;10327160;28;20122;-62
2022/03/11 00:32:25;;;;;;;4.60;4.10;;;;;;;-0.59;100.00;99186.31;10311546;28;20176;-62
2022/03/11 00:37:29;;;;;;;6.53;4.35;;;;;;;-0.69;100.00;99192.03;10329502;28;20116;-63
2022/03/11 00:42:32;;;;;;;6.22;4.30;;;;;;;-0.75;100.00;99187.00;10324961;28;20655;-62
2022/03/11 00:47:37;;;;;;;6.75;4.65;;;;;;;-0.83;100.00;99187.41;10329082;28;20046;-63
2022/03/11 00:52:41;;;;;;;4.68;3.97;;;;;;;-0.88;100.00;99177.94;10307233;28;20137;-61
2022/03/11 00:57:45;;;;;;;4.68;4.03;;;;;;;-0.95;100.00;99188.78;10322437;28;20121;-63
2022/03/11 01:02:49;;;;;;;5.30;3.58;;;;;;;-0.98;100.00;99188.94;10308637;28;20518;-62
2022/03/11 01:07:53;;;;;;;7.95;4.07;;;;;;;-1.01;100.00;99193.50;10304273;28;20050;-62
2022/03/11 01:12:56;;;;;;;4.65;4.05;;;;;;;-1.01;100.00;99189.09;10304724;28;20050;-63
2022/03/11 01:18:01;;;;;;;4.53;3.90;;;;;;;-1.03;100.00;99183.00;10290573;28;20042;-61
2022/03/11 01:23:04;;;;;;;4.63;3.97;;;;;;;-1.03;100.00;99182.13;10303621;28;20082;-62
2022/03/11 01:28:07;;;;;;;5.72;4.18;;;;;;;-1.08;100.00;99177.03;10311096;28;20077;-63
2022/03/11 01:33:13;;;;;;;5.15;4.10;;;;;;;-1.07;100.00;99181.41;10311481;28;20082;-62
2022/03/11 01:38:17;;;;;;;5.55;4.10;;;;;;;-1.13;100.00;99169.31;10289678;28;20494;-63
2022/03/11 01:43:23;;;;;;;4.70;4.18;;;;;;;-1.17;100.00;99167.72;10314010;28;20440;-62
2022/03/11 01:48:28;;;;;;;4.43;3.75;;;;;;;-1.26;100.00;99169.03;10313231;28;20070;-62
2022/03/11 01:53:31;;;;;;;4.97;3.90;;;;;;;-1.28;100.00;99165.59;10279024;28;20470;-62
2022/03/11 01:58:35;;;;;;;5.07;4.03;;;;;;;-1.31;100.00;99160.44;10282450;28;20066;-62
2022/03/11 02:03:43;;;;;;;5.53;4.25;;;;;;;-1.35;100.00;99150.06;10276924;28;20051;-62
2022/03/11 02:08:46;;;;;;;6.15;3.97;;;;;;;-1.41;100.00;99153.84;10285844;28;20097;-61
2022/03/11 02:13:51;;;;;;;5.18;4.03;;;;;;;-1.53;100.00;99149.97;10273222;28;20598;-60
2022/03/11 02:18:59;;;;;;;5.07;4.20;;;;;;;-1.67;100.00;99139.13;10288791;28;20538;-60
2022/03/11 02:24:05;;;;;;;4.78;3.97;;;;;;;-1.77;100.00;99131.59;10295934;28;20566;-56
2022/03/11 02:29:09;;;;;;;4.65;4.18;;;;;;;-1.92;100.00;99129.59;10298665;28;20074;-55
2022/03/11 02:34:12;;;;;;;6.50;4.28;;;;;;;-2.00;100.00;99140.47;10280743;28;20208;-59
2022/03/11 02:39:17;;;;;;;4.32;3.88;;;;;;;-2.04;100.00;99134.47;10304076;28;20054;-55
2022/03/11 02:44:20;;;;;;;6.07;4.10;;;;;;;-2.09;100.00;99125.03;10297899;28;20122;-57
2022/03/11 02:49:23;;;;;;;4.68;4.10;;;;;;;-2.15;100.00;99114.72;10305279;28;20118;-55
2022/03/11 02:54:27;;;;;;;5.00;4.50;;;;;;;-2.29;100.00;99112.66;10292897;28;20154;-54
2022/03/11 02:59:30;;;;;;;5.53;4.43;;;;;;;-2.43;100.00;99121.13;10309823;28;20503;-56
2022/03/11 03:04:34;;;;;;;4.80;4.20;;;;;;;-2.48;100.00;99118.69;10305790;28;20049;-61
2022/03/11 03:09:41;;;;;;;5.53;3.97;;;;;;;-2.42;100.00;99118.44;10313535;28;20051;-58
2022/03/11 03:14:45;;;;;;;5.20;4.05;;;;;;;-2.32;100.00;99114.50;10307435;28;20126;-61
2022/03/11 03:19:48;;;;;;;5.90;4.03;;;;;;;-2.22;100.00;99114.97;10301422;28;20074;-61
2022/03/11 03:24:53;;;;;;;6.95;3.97;;;;;;;-2.18;100.00;99111.31;10288838;28;20055;-60
2022/03/11 03:29:57;;;;;;;5.70;3.95;;;;;;;-2.15;100.00;99104.16;10298983;28;20058;-60
2022/03/11 03:35:00;;;;;;;4.38;3.95;;;;;;;-2.15;100.00;99094.47;10305657;28;20134;-59
2022/03/11 03:40:06;;;;;;;6.43;3.90;;;;;;;-2.14;100.00;99100.59;10312597;28;20078;-60
2022/03/11 03:45:10;;;;;;;5.40;4.13;;;;;;;-2.17;100.00;99094.50;10306225;28;20404;-60
2022/03/11 03:50:14;;;;;;;6.65;4.32;;;;;;;-2.17;100.00;99097.16;10323168;28;20456;-57
2022/03/11 03:55:19;;;;;;;4.97;4.07;;;;;;;-2.23;100.00;99096.53;10308758;28;20105;-59
2022/03/11 04:00:22;;;;;;;4.82;4.03;;;;;;;-2.27;100.00;99089.69;10295743;28;20125;-59
2022/03/11 04:05:25;;;;;;;5.43;4.43;;;;;;;-2.30;100.00;99098.63;10269194;28;20542;-54
2022/03/11 04:10:29;;;;;;;7.32;4.60;;;;;;;-2.32;100.00;99092.53;10291617;28;20632;-55
2022/03/11 04:15:33;;;;;;;6.10;4.07;;;;;;;-2.37;100.00;99089.22;10287082;28;20440;-58
2022/03/11 04:20:36;;;;;;;5.22;4.10;;;;;;;-2.40;100.00;99084.06;10289680;28;20073;-58
2022/03/11 04:25:40;;;;;;;5.15;4.13;;;;;;;-2.43;100.00;99086.84;10292024;28;20125;-59
2022/03/11 04:30:45;;;;;;;5.10;4.20;;;;;;;-2.45;100.00;99086.03;10270747;28;20062;-61
2022/03/11 04:35:48;;;;;;;4.97;4.05;;;;;;;-2.50;100.00;99095.00;10295272;28;20047;-52
2022/03/11 04:40:53;;;;;;;4.75;4.00;;;;;;;-2.56;100.00;99092.63;10302627;28;20117;-55
2022/03/11 04:45:55;;;;;;;5.28;3.92;;;;;;;-2.57;100.00;99088.25;10304357;28;20077;-56
2022/03/11 04:50:59;;;;;;;5.03;3.97;;;;;;;-2.59;100.00;99084.81;10298251;28;20491;-56
2022/03/11 04:56:03;;;;;;;6.30;3.70;;;;;;;-2.63;100.00;99077.94;10297862;28;20053;-52
2022/03/11 05:01:07;;;;;;;4.40;3.90;;;;;;;-2.68;100.00;99072.84;10305079;28;20045;-59
2022/03/11 05:06:11;;;;;;;4.53;3.55;;;;;;;-2.71;100.00;99069.47;10309477;28;20046;-59
2022/03/11 05:11:15;;;;;;;5.78;4.20;;;;;;;-2.76;100.00;99072.31;10298288;28;20126;-52
2022/03/11 05:16:18;;;;;;;6.13;4.28;;;;;;;-2.82;100.00;99076.03;10321222;28;20074;-59
2022/03/11 05:21:23;;;;;;;8.07;4.55;;;;;;;-2.90;100.00;99080.78;10301393;28;20043;-57
2022/03/11 05:26:29;;;;;;;6.32;3.80;;;;;;;-2.97;100.00;99079.28;10295116;28;20057;-60
2022/03/11 05:31:32;;;;;;;5.70;4.30;;;;;;;-3.03;100.00;99084.81;10285523;28;20688;-59
2022/03/11 05:36:36;;;;;;;6.88;4.25;;;;;;;-3.10;100.00;99078.91;10299239;28;20045;-59
2022/03/11 05:42:06;;;;;;;5.03;4.00;;;;;;;-3.10;100.00;99084.19;10291734;28;20046;-54
2022/03/11 05:47:09;;;;;;;6.05;4.35;;;;;;;-3.12;100.00;99084.22;10283411;28;20059;-56
2022/03/11 05:52:12;;;;;;;5.53;4.25;;;;;;;-3.14;100.00;99080.81;10314345;28;20066;-58
2022/03/11 05:57:16;;;;;;;6.88;4.15;;;;;;;-3.14;100.00;99082.56;10303812;28;20121;-58
2022/03/11 06:02:19;;;;;;;5.45;3.88;;;;;;;-3.18;100.00;99081.81;10317415;28;20117;-57
2022/03/11 06:07:24;;;;;;;4.82;4.05;;;;;;;-3.19;100.00;99084.53;10283231;28;20050;-58
2022/03/11 06:12:29;;;;;;;6.95;3.88;;;;;;;-3.16;100.00;99087.03;10288031;28;20544;-51
2022/03/11 06:17:32;;;;;;;5.13;3.47;;;;;;;-3.12;100.00;99086.00;10283991;28;20057;-53
2022/03/11 06:22:36;;;;;;;6.50;4.15;;;;;;;-3.11;100.00;99091.22;10289421;28;20047;-57
2022/03/11 06:27:40;;;;;;;6.22;4.05;;;;;;;-3.12;100.00;99093.91;10289290;28;20130;-60
2022/03/11 06:32:44;;;;;;;7.00;3.72;;;;;;;-3.16;100.00;99087.91;10300482;23;20050;-59
2022/03/11 06:37:50;;;;;;;5.20;3.90;;;;;;;-3.13;100.00;99085.16;10343158;28;20104;-61
2022/03/11 06:42:55;;;;;;;5.00;3.70;;;;;;;-3.08;100.00;99089.38;10323938;28;20065;-59
2022/03/11 06:47:58;;;;;;;6.85;3.85;;;;;;;-3.00;100.00;99087.31;10307237;28;20053;-49
2022/03/11 06:53:01;;;;;;;10.15;4.32;;;;;;;-2.91;100.00;99079.06;10315652;28;20077;-50
2022/03/11 06:58:05;;;;;;;4.60;3.53;;;;;;;-2.77;100.00;99085.56;10320225;28;20047;-58
2022/03/11 07:03:10;;;;;;;4.82;3.70;;;;;;;-2.65;100.00;99096.47;10324304;28;20069;-54
2022/03/11 07:08:14;;;;;;;5.35;3.50;;;;;;;-2.51;100.00;99098.53;10324732;28;20038;-53
2022/03/11 07:13:18;;;;;;;6.28;3.65;;;;;;;-2.33;100.00;99101.38;10319887;28;20046;-50
2022/03/11 07:18:21;;;;;;;7.65;4.10;;;;;;;-2.17;100.00;99098.94;10323436;28;20146;-52
2022/03/11 07:23:24;;;;;;;8.32;3.55;;;;;;;-2.02;100.00;99106.22;10324657;28;20050;-52
2022/03/11 07:28:29;;;;;;;6.65;3.53;;;;;;;-1.83;97.02;99101.94;10339665;28;20046;-51
2022/03/11 07:33:32;;;;;;;7.50;3.65;;;;;;;-1.60;99.53;99107.09;10320548;28;20133;-54
2022/03/11 07:38:35;;;;;;;5.57;3.65;;;;;;;-1.41;96.80;99109.75;10322124;28;20057;-55
2022/03/11 07:43:44;;;;;;;4.75;3.22;;;;;;;-1.23;93.98;99111.66;10311389;28;20181;-53
2022/03/11 07:49:08;;;;;;;4.85;3.28;;;;;;;-1.03;92.29;99113.34;10323637;28;20041;-49
2022/03/11 07:54:11;;;;;;;4.63;3.38;;;;;;;-0.86;91.30;99107.28;10312642;28;20070;-53
2022/03/11 07:59:15;;;;;;;3.95;3.00;;;;;;;-0.70;80.12;99104.75;10315929;28;20443;-61
2022/03/11 08:04:18;;;;;;;4.28;3.30;;;;;;;-0.55;74.11;99095.25;10315736;28;20046;-64
2022/03/11 08:09:21;;;;;;;3.92;2.97;;;;;;;-0.38;70.98;99097.09;10319772;28;20141;-59
2022/03/11 08:14:26;;;;;;;4.07;3.08;;;;;;;-0.21;69.82;99089.13;10316991;28;20055;-52
2022/03/11 08:19:30;;;;;;;4.72;3.00;;;;;;;0.03;66.12;99085.34;10320880;28;20052;-51
2022/03/11 08:24:33;;;;;;;3.88;2.80;;;;;;;0.24;63.55;99086.88;10321898;28;20052;-53
2022/03/11 08:29:38;;;;;;;3.97;2.80;;;;;;;0.45;60.58;99076.09;10322494;28;20046;-52
2022/03/11 08:34:42;;;;;;;5.63;2.92;;;;;;;0.72;64.56;99070.25;10318844;28;20050;-52
2022/03/11 08:39:58;;;;;;;6.60;3.55;;;;;;;0.86;61.83;99077.47;10320415;28;20558;-52
2022/03/11 08:45:03;;;;;;;5.68;3.20;;;;;;;1.08;62.55;99075.34;10320202;28;20081;-50
2022/03/11 08:50:07;;;;;;;4.10;2.97;;;;;;;1.27;59.64;99081.41;10317001;28;20469;-51
2022/03/11 08:55:11;;;;;;;3.63;2.78;;;;;;;1.48;58.31;99087.31;10319115;28;20824;-50
2022/03/11 09:00:17;;;;;;;5.82;3.35;;;;;;;1.64;58.54;99082.00;10319044;28;20427;-58
2022/03/11 09:05:21;;;;;;;4.65;2.75;;;;;;;1.90;56.80;99071.66;10318986;28;20043;-54
2022/03/11 09:10:24;;;;;;;5.10;2.80;;;;;;;2.08;56.19;99075.88;10320335;28;20050;-61
2022/03/11 09:15:28;;;;;;;2.95;2.60;;;;;;;2.30;55.92;99077.22;10317207;28;20137;-58
2022/03/11 09:20:31;;;;;;;3.05;2.75;;;;;;;2.52;53.60;99068.81;10313641;28;20499;-57
2022/03/11 09:25:41;;;;;;;3.70;2.80;;;;;;;2.75;52.81;99059.41;10320039;28;20054;-50
2022/03/11 09:30:45;;;;;;;3.75;2.70;;;;;;;2.99;52.56;99065.94;10319998;28;20074;-51
2022/03/11 09:35:48;;;;;;;3.38;2.65;;;;;;;3.20;51.02;99059.25;10318116;28;20130;-52
2022/03/11 09:40:52;;;;;;;4.30;2.65;;;;;;;3.37;50.16;99060.81;10316788;28;20050;-55
2022/03/11 09:45:57;;;;;;;3.58;2.53;;;;;;;3.54;50.45;99051.72;10314157;28;20124;-61
2022/03/11 09:51:00;;;;;;;4.68;2.70;;;;;;;3.72;49.34;99053.25;10313852;28;20117;-58
2022/03/11 09:56:10;;;;;;;3.38;2.58;;;;;;;3.96;50.45;99051.63;10315534;28;20050;-60
2022/03/11 10:01:14;;;;;;;3.45;2.63;;;;;;;4.16;48.05;99055.59;10312471;28;20559;-52
2022/03/11 10:06:37;;;;;;;3.05;2.33;;;;;;;4.41;47.75;99053.09;10311469;28;20500;-51
2022/03/11 10:11:41;;;;;;;6.13;2.90;;;;;;;4.62;47.51;99059.59;10317092;28;20084;-61
2022/03/11 10:16:45;;;;;;;2.97;2.58;;;;;;;4.81;46.70;99052.09;10315634;28;20049;-51
2022/03/11 10:21:50;;;;;;;4.55;2.53;;;;;;;5.00;47.31;99051.63;10317162;28;20585;-50
2022/03/11 10:26:54;;;;;;;3.97;2.60;;;;;;;5.22;45.89;99040.22;10308218;28;20097;-55
2022/03/11 10:32:00;;;;;;;6.30;2.28;;;;;;;5.37;44.13;99035.56;10314801;28;20149;-56
2022/03/11 10:37:06;;;;;;;8.18;2.50;;;;;;;5.59;44.55;99028.63;10321297;28;20134;-51
2022/03/11 10:42:19;;;;;;;2.72;2.20;;;;;;;5.75;44.92;99026.53;10323693;28;20043;-58
2022/03/11 10:47:26;;;;;;;5.57;2.20;;;;;;;5.96;42.50;99023.19;10317693;28;20050;-55
2022/03/11 10:52:31;;;;;;;4.30;2.35;;;;;;;6.10;40.98;99019.50;10325046;28;20069;-53
2022/03/11 10:57:36;;;;;;;5.05;2.10;;;;;;;6.24;41.58;99018.44;10322359;28;20143;-52
2022/03/11 11:02:41;;;;;;;2.92;2.08;;;;;;;6.38;40.68;99002.16;10326384;28;20084;-51
2022/03/11 11:07:45;;;;;;;5.40;2.08;;;;;;;6.56;40.12;99010.56;10324139;28;20061;-50
2022/03/11 11:12:49;;;;;;;2.95;2.10;;;;;;;6.75;40.87;98995.72;10326008;28;20121;-58
2022/03/11 11:17:54;;;;;;;2.90;1.90;;;;;;;6.98;40.23;98988.50;10325062;28;20054;-58
2022/03/11 11:23:02;;;;;;;4.82;1.80;;;;;;;7.16;40.82;98982.63;10321572;28;20143;-55
2022/03/11 11:28:09;;;;;;;3.60;1.80;;;;;;;7.36;39.34;98972.94;10318639;28;20046;-54
2022/03/11 11:33:14;;;;;;;4.18;1.80;;;;;;;7.61;38.95;98969.03;10323672;28;20511;-54
2022/03/11 11:38:34;;;;;;;4.13;2.00;;;;;;;7.76;37.75;98968.75;10316977;28;20499;-54
2022/03/11 11:43:37;;;;;;;2.65;1.95;;;;;;;8.02;37.31;98955.78;10318422;28;20101;-57
2022/03/11 11:49:22;;;;;;;2.80;1.70;;;;;;;8.32;33.45;98941.53;10319648;28;20113;-51
2022/03/11 11:54:46;;;;;;;2.00;1.63;;;;;;;8.54;34.35;98923.56;10319622;28;20038;-52
2022/03/11 11:59:50;;;;;;;1.80;1.58;;;;;;;8.74;34.93;98910.22;10317909;28;20152;-58
2022/03/11 12:04:54;;;;;;;2.97;1.55;;;;;;;8.89;33.54;98905.28;10316125;28;20038;-51
2022/03/11 12:10:00;;;;;;;1.92;1.52;;;;;;;9.05;34.26;98896.69;10322237;28;20510;-51
2022/03/11 12:15:16;;;;;;;1.95;1.50;;;;;;;9.28;31.38;98889.22;10320528;28;20061;-54
2022/03/11 12:20:46;;;;;;;3.22;1.40;;;;;;;9.45;31.44;98884.09;10321509;28;20517;-55
2022/03/11 12:25:54;;;;;;;1.88;1.15;;;;;;;9.63;31.38;98871.63;10314770;28;20078;-52
2022/03/11 12:30:59;;;;;;;2.25;1.00;;;;;;;10.00;29.17;98865.44;10327036;23;20054;-58
2022/03/11 12:36:05;;;;;;;3.90;1.10;;;;;;;10.21;29.04;98852.75;10290317;28;20043;-59
2022/03/11 12:41:11;;;;;;;2.70;1.13;;;;;;;10.44;29.22;98846.00;10288225;28;20126;-61
2022/03/11 12:46:14;;;;;;;3.50;1.20;;;;;;;10.75;28.86;98844.84;10280556;28;20529;-59
2022/03/11 12:51:24;;;;;;;1.20;1.02;;;;;;;10.92;28.79;98846.72;10279513;28;20035;-59
2022/03/11 12:56:27;;;;;;;2.65;1.20;;;;;;;11.15;28.04;98843.56;10274469;28;20483;-57
2022/03/11 13:01:30;;;;;;;2.55;1.10;;;;;;;11.42;26.83;98841.72;10278919;28;20059;-59
2022/03/11 13:06:34;;;;;;;1.92;1.00;;;;;;;11.63;26.98;98841.41;10276638;28;20050;-59
2022/03/11 13:11:37;;;;;;;1.85;1.15;;;;;;;11.94;27.24;98823.88;10278693;28;20146;-59
2022/03/11 13:16:41;;;;;;;1.58;1.30;;;;;;;12.13;27.01;98817.44;10279003;28;20084;-60
2022/03/11 13:21:46;;;;;;;2.20;1.05;;;;;;;12.39;26.65;98816.53;10281253;28;20766;-59
2022/03/11 13:26:49;;;;;;;1.10;1.00;;;;;;;12.68;26.78;98809.84;10292788;28;20047;-55
2022/03/11 13:31:58;;;;;;;1.75;1.10;;;;;;;12.91;27.94;98801.97;10280360;28;20051;-58
2022/03/11 13:37:15;;;;;;;2.03;1.10;;;;;;;13.04;23.92;98794.19;10277084;28;20042;-62
2022/03/11 13:42:27;;;;;;;1.40;1.08;;;;;;;13.25;25.24;98804.50;10276468;28;20045;-56
2022/03/11 13:47:30;;;;;;;1.45;0.95;;;;;;;13.51;26.64;98800.81;10279244;28;20093;-51
2022/03/11 13:52:42;;;;;;;2.25;1.15;;;;;;;13.53;25.16;98798.78;10275055;28;20051;-64
2022/03/11 13:57:45;;;;;;;;;;;;;;;13.61;23.29;98802.47;10279722;28;20043;-58
2022/03/11 14:02:49;;;;;;;1.55;1.40;;;;;;;13.82;25.25;98791.94;10274292;28;19964;-53
2022/03/11 14:08:00;;;;;;;2.25;1.40;;;;;;;14.05;26.00;98784.94;10278534;28;20488;-59
2022/03/11 14:13:05;;;;;;;2.47;1.50;;;;;;;14.22;26.00;98785.72;10281182;28;20043;-59
2022/03/11 14:18:12;;;;;;;4.72;1.50;;;;;;;14.25;25.19;98785.38;10273137;28;20133;-57
2022/03/11 14:23:36;;;;;;;1.35;1.25;;;;;;;14.41;25.13;98774.44;10283803;28;20051;-61
2022/03/11 14:28:39;;;;;;;4.28;1.85;;;;;;;14.61;26.05;98782.13;10282660;28;20495;-61
2022/03/11 14:33:43;;;;;;;3.28;2.10;;;;;;;14.56;27.81;98787.25;10285127;28;20046;-57
2022/03/11 14:38:47;;;;;;;4.57;2.10;;;;;;;14.35;27.94;98782.47;10281190;28;20153;-56
2022/03/11 14:43:51;;;;;;;3.83;2.13;;;;;;;14.17;28.69;98768.09;10276994;28;20035;-61
2022/03/11 14:48:55;;;;;;;3.03;2.00;;;;;;;14.07;27.48;98759.34;10283316;28;20039;-59
2022/03/11 14:54:01;;;;;;;3.50;1.67;;;;;;;14.13;28.50;98755.97;10285169;28;20403;-56
2022/03/11 14:59:06;;;;;;;4.68;1.70;;;;;;;14.10;28.54;98756.31;10281776;28;20126;-56
2022/03/11 15:04:11;;;;;;;2.28;1.90;;;;;;;14.10;28.33;98755.47;10278689;28;20515;-60
2022/03/11 15:09:16;;;;;;;1.98;1.77;;;;;;;14.18;28.90;98752.72;10275819;28;20038;-55
2022/03/11 15:14:19;;;;;;;4.35;1.88;;;;;;;14.24;28.73;98759.28;10277519;28;20673;-57
2022/03/11 15:19:22;;;;;;;3.15;1.70;;;;;;;14.06;27.94;98754.94;10280028;28;20122;-58
2022/03/11 15:24:26;;;;;;;4.07;1.77;;;;;;;13.94;27.85;98756.34;10278620;28;20058;-59
2022/03/11 15:29:31;;;;;;;2.55;1.70;;;;;;;13.82;27.94;98754.03;10280561;28;20054;-57
2022/03/11 15:34:34;;;;;;;4.35;1.80;;;;;;;13.69;28.24;98754.56;10274417;28;20508;-59
2022/03/11 15:39:40;;;;;;;2.25;1.50;;;;;;;13.56;28.31;98755.13;10276311;28;20410;-57
2022/03/11 15:44:50;;;;;;;2.67;1.60;;;;;;;13.51;27.89;98752.06;10279619;28;20122;-58
2022/03/11 15:50:02;;;;;;;2.95;1.73;;;;;;;13.39;28.13;98758.84;10275260;28;20146;-57
2022/03/11 15:55:08;;;;;;;3.03;1.70;;;;;;;13.24;27.76;98767.63;10278399;28;20077;-58
2022/03/11 16:00:14;;;;;;;4.90;1.80;;;;;;;13.08;28.24;98765.78;10277719;28;20134;-58
2022/03/11 16:05:18;;;;;;;3.42;1.45;;;;;;;13.07;27.88;98758.69;10280970;28;20491;-58
2022/03/11 16:10:27;;;;;;;3.92;1.40;;;;;;;12.93;28.04;98762.91;10278934;28;20138;-59
2022/03/11 16:15:31;;;;;;;6.13;1.60;;;;;;;12.87;28.14;98763.59;10277733;28;20069;-58
2022/03/11 16:20:35;;;;;;;4.63;1.75;;;;;;;12.75;28.53;98757.66;10274321;28;20384;-60
2022/03/11 16:25:39;;;;;;;2.40;1.75;;;;;;;12.60;28.62;98765.56;10274820;28;20066;-57
2022/03/11 16:30:55;;;;;;;2.35;1.55;;;;;;;12.41;28.87;98761.31;10272814;28;20039;-55
2022/03/11 16:36:17;;;;;;;4.40;1.70;;;;;;;12.28;28.86;98772.59;10282481;28;20043;-60
2022/03/11 16:41:42;;;;;;;2.47;1.83;;;;;;;12.02;28.42;98778.91;10270613;28;20046;-61
2022/03/11 16:46:47;;;;;;;3.08;1.70;;;;;;;11.85;29.18;98772.53;10283195;28;20470;-61
2022/03/11 16:51:54;;;;;;;3.50;1.60;;;;;;;11.46;29.20;98780.25;10275400;28;20125;-60
2022/03/11 16:56:58;;;;;;;1.60;1.50;;;;;;;11.01;28.91;98784.78;10275441;28;20050;-61
2022/03/11 17:02:02;;;;;;;2.47;1.70;;;;;;;10.50;29.30;98785.28;10281351;28;20097;-61
2022/03/11 17:07:07;;;;;;;3.75;1.75;;;;;;;10.01;29.90;98789.06;10282059;28;20047;-62
2022/03/11 17:12:13;;;;;;;4.55;1.88;;;;;;;9.44;31.67;98796.34;10279638;28;20451;-62
2022/03/11 17:17:39;;;;;;;4.22;1.75;;;;;;;8.76;31.78;98787.34;10275557;28;20061;-63
2022/03/11 17:22:43;;;;;;;4.32;1.88;;;;;;;8.21;32.47;98798.53;10281770;28;20464;-62
2022/03/11 17:27:48;;;;;;;3.33;1.80;;;;;;;7.74;33.19;98796.34;10278419;28;20153;-61
2022/03/11 17:32:51;;;;;;;3.85;1.85;;;;;;;7.19;34.22;98797.47;10275936;28;20575;-61
2022/03/11 17:37:54;;;;;;;2.50;1.83;;;;;;;6.84;34.59;98799.44;10277730;28;20133;-61
2022/03/11 17:42:59;;;;;;;2.45;1.65;;;;;;;6.43;35.01;98796.53;10280307;28;20046;-61
2022/03/11 17:48:03;;;;;;;3.25;1.92;;;;;;;6.12;35.68;98799.03;10281237;28;20137;-61
2022/03/11 17:53:06;;;;;;;1.73;1.63;;;;;;;5.85;36.25;98808.25;10280505;28;20042;-63
2022/03/11 17:58:12;;;;;;;6.80;2.00;;;;;;;5.62;36.12;98811.91;10275804;28;20074;-62
2022/03/11 18:03:17;;;;;;;3.33;2.00;;;;;;;5.37;36.50;98811.13;10280286;28;20039;-61
2022/03/11 18:08:22;;;;;;;3.55;2.20;;;;;;;5.17;36.79;98810.00;10274249;28;20055;-62
2022/03/11 18:13:26;;;;;;;4.35;2.20;;;;;;;4.97;37.08;98823.03;10270519;28;20051;-61
2022/03/11 18:18:29;;;;;;;3.67;2.30;;;;;;;4.77;37.39;98822.72;10269303;28;20049;-60
2022/03/11 18:23:32;;;;;;;3.90;2.22;;;;;;;4.57;37.51;98821.53;10279097;28;20568;-61
2022/03/11 18:28:38;;;;;;;4.30;2.35;;;;;;;4.45;37.59;98822.44;10269098;28;20415;-62
2022/03/11 18:33:42;;;;;;;6.25;2.20;;;;;;;4.29;37.58;98826.22;10277824;28;20768;-59
2022/03/11 18:38:47;;;;;;;3.55;2.00;;;;;;;4.15;37.77;98829.03;10269789;28;20566;-58
2022/03/11 18:43:53;;;;;;;4.07;2.35;;;;;;;3.98;37.77;98819.59;10308068;28;20041;-64
2022/03/11 18:49:00;;;;;;;3.28;2.30;;;;;;;3.79;38.42;98820.03;10297543;28;20047;-61
2022/03/11 18:54:06;;;;;;;5.97;2.40;;;;;;;3.61;37.93;98833.69;10295428;28;20055;-62
2022/03/11 18:59:11;;;;;;;2.72;2.30;;;;;;;3.46;38.31;98832.94;10293301;28;20047;-63
2022/03/11 19:04:14;;;;;;;2.70;2.25;;;;;;;3.35;38.60;98833.66;10278767;28;20050;-63
2022/03/11 19:09:17;;;;;;;3.25;2.50;;;;;;;3.23;38.73;98829.22;10278997;28;20409;-67
2022/03/11 19:14:23;;;;;;;4.05;3.17;;;;;;;3.12;38.75;98824.59;10275613;28;20468;-63
2022/03/11 19:19:26;;;;;;;3.20;2.58;;;;;;;3.03;38.55;98833.22;10281375;28;20047;-60
2022/03/11 19:24:33;;;;;;;3.20;2.47;;;;;;;2.92;38.54;98831.25;10288318;28;20045;-65
2022/03/11 19:29:37;;;;;;;7.80;6.30;;;;;;;2.84;38.99;98844.22;10280285;28;20071;-58
2022/03/11 19:34:41;;;;;;;6.05;4.72;;;;;;;2.75;39.42;98840.38;10285887;28;20094;-65
2022/03/11 19:39:47;;;;;;;7.20;5.25;;;;;;;2.65;39.49;98834.78;10283717;28;20051;-65
2022/03/11 19:44:51;;;;;;;13.27;9.73;;;;;;;2.56;39.46;98835.41;10298438;28;20046;-64
2022/03/11 19:49:54;;;;;;;27.73;17.88;;;;;;;2.48;39.62;98841.22;10280721;28;20433;-63
2022/03/11 19:54:58;;;;;;;12.07;8.60;;;;;;;2.41;39.14;98850.56;10282254;28;20408;-63
2022/03/11 20:00:05;;;;;;;22.30;15.35;;;;;;;2.32;39.41;98852.00;10281919;28;20283;-64
2022/03/11 20:05:14;;;;;;;20.50;12.88;;;;;;;2.24;39.83;98852.47;10273805;28;20098;-62
2022/03/11 20:10:17;;;;;;;9.43;7.53;;;;;;;2.16;39.55;98846.81;10282279;28;20470;-62
2022/03/11 20:15:22;;;;;;;10.18;5.63;;;;;;;2.09;39.46;98846.34;10280382;28;20039;-61
2022/03/11 20:20:26;;;;;;;5.20;4.70;;;;;;;2.00;39.65;98857.56;10276755;28;20126;-63
2022/03/11 20:25:29;;;;;;;6.00;3.40;;;;;;;1.92;39.89;98847.41;10281315;28;20050;-62
2022/03/11 20:30:35;;;;;;;4.20;3.45;;;;;;;1.88;40.06;98843.25;10279899;28;20652;-62
2022/03/11 20:35:38;;;;;;;4.57;3.03;;;;;;;1.83;40.06;98843.50;10275983;28;20078;-63
2022/03/11 20:40:41;;;;;;;5.13;2.40;;;;;;;1.79;40.42;98835.81;10276955;28;20061;-62
2022/03/11 20:45:46;;;;;;;5.50;2.40;;;;;;;1.77;40.12;98835.06;10279684;28;20047;-63
2022/03/11 20:50:51;;;;;;;3.33;2.72;;;;;;;1.72;40.29;98848.63;10280688;28;20121;-62
2022/03/11 20:55:54;;;;;;;3.63;2.90;;;;;;;1.68;40.61;98850.63;10289180;28;20046;-63
2022/03/11 21:00:59;;;;;;;3.95;2.80;;;;;;;1.63;40.13;98849.19;10280128;28;20039;-61
2022/03/11 21:06:02;;;;;;;3.33;2.50;;;;;;;1.56;40.88;98854.03;10269280;28;20041;-63
2022/03/11 21:11:07;;;;;;;5.22;2.72;;;;;;;1.49;40.65;98855.38;10272147;28;20499;-59
2022/03/11 21:16:11;;;;;;;5.70;2.90;;;;;;;1.39;40.81;98852.41;10278263;28;20134;-63
2022/03/11 21:21:18;;;;;;;3.53;2.40;;;;;;;1.31;40.79;98863.47;10279614;28;20549;-62
2022/03/11 21:26:22;;;;;;;6.43;2.80;;;;;;;1.26;40.73;98859.38;10277591;28;20924;-62
2022/03/11 21:31:26;;;;;;;3.80;2.88;;;;;;;1.21;40.84;98868.50;10275374;28;20055;-62
2022/03/11 21:36:29;;;;;;;7.60;2.75;;;;;;;1.14;41.71;98867.13;10275753;28;20045;-63
2022/03/11 21:41:34;;;;;;;3.50;2.90;;;;;;;1.08;41.56;98863.03;10270414;28;20519;-60
2022/03/11 21:46:40;;;;;;;2.78;2.40;;;;;;;1.06;40.92;98862.28;10275763;28;20121;-60
2022/03/11 21:51:44;;;;;;;7.38;4.95;;;;;;;1.04;41.49;98855.34;10276894;28;20050;-61
2022/03/11 21:56:48;;;;;;;5.72;2.90;;;;;;;0.98;40.94;98856.56;10278044;28;20046;-61
2022/03/11 22:01:57;;;;;;;6.22;2.70;;;;;;;0.89;41.29;98852.66;10279477;28;20047;-61
2022/03/11 22:07:02;;;;;;;4.28;2.42;;;;;;;0.85;41.86;98858.22;10276539;28;20066;-58
2022/03/11 22:12:06;;;;;;;6.13;2.53;;;;;;;0.79;41.72;98851.47;10280294;28;20070;-60
2022/03/11 22:17:12;;;;;;;3.90;2.30;;;;;;;0.69;42.28;98866.22;10273111;28;20569;-60
2022/03/11 22:22:15;;;;;;;3.10;2.70;;;;;;;0.63;41.55;98863.94;10269662;28;20050;-61
2022/03/11 22:27:21;;;;;;;3.92;2.67;;;;;;;0.51;42.13;98857.50;10272936;28;20094;-61
2022/03/11 22:32:26;;;;;;;4.28;2.20;;;;;;;0.47;41.38;98869.25;10276416;28;20567;-59
2022/03/11 22:37:29;;;;;;;2.70;2.15;;;;;;;0.44;41.70;98878.22;10275828;28;20129;-60
2022/03/11 22:42:35;;;;;;;2.55;2.30;;;;;;;0.40;40.80;98872.22;10283532;28;20054;-59
2022/03/11 22:47:39;;;;;;;2.38;2.15;;;;;;;0.40;40.68;98866.09;10281570;28;20431;-62
2022/03/11 22:52:43;;;;;;;2.75;2.03;;;;;;;0.26;40.82;98859.75;10277428;28;20523;-62
2022/03/11 22:57:46;;;;;;;4.00;2.33;;;;;;;0.21;41.36;98875.03;10285119;28;20078;-62
2022/03/11 23:02:59;;;;;;;2.53;2.17;;;;;;;0.16;41.76;98863.84;10285630;28;20046;-60
2022/03/11 23:13:31;;;;;;;2.27;2.07;;;;;;;-0.11;43.41;98868.84;10282016;28;20065;-61
2022/03/11 23:18:36;;;;;;;4.00;2.38;;;;;;;-0.39;44.18;98868.53;10275576;28;20055;-62
2022/03/11 23:23:40;;;;;;;3.75;2.20;;;;;;;-0.50;44.03;98861.16;10275535;28;20051;-61
2022/03/11 23:28:44;;;;;;;3.47;2.47;;;;;;;-0.69;44.46;98865.69;10281857;28;20051;-63
2022/03/11 23:33:50;;;;;;;3.42;2.30;;;;;;;-0.65;43.22;98868.09;10280096;28;20047;-62
2022/03/11 23:38:53;;;;;;;2.50;2.30;;;;;;;-0.73;44.49;98867.63;10281804;28;20508;-60
2022/03/11 23:43:57;;;;;;;3.88;2.60;;;;;;;-0.89;46.16;98869.38;10273055;28;20105;-60
2022/03/11 23:49:03;;;;;;;4.47;2.20;;;;;;;-1.02;45.07;98870.00;10282281;28;20074;-58